Time;durP1;ratioP1;P1;durP2;ratioP2;P2;SDS_P1;SDS_P2;PMS_P1;PMS_P2;Temp;Humidity;BMP_temperature;BMP_pressure;BME280_temperature;BME280_humidity;BME280_pressure;Samples;Min_cycle;Max_cycle;Signal;HPM_P1;HPM_P2
2023/06/16 00:00:35;;;;;;;4.95;3.00;;;;;;;20.26;38.87;100110.78;4991804;28;20512;-79
2023/06/16 00:03:02;;;;;;;5.22;3.40;;;;;;;20.20;38.71;100106.84;4991851;28;20062;-80
2023/06/16 00:05:29;;;;;;;4.53;3.25;;;;;;;20.13;39.32;100111.91;4991856;28;20064;-79
2023/06/16 00:07:59;;;;;;;4.70;3.47;;;;;;;20.06;38.86;100110.78;4991793;28;20064;-79
2023/06/16 00:10:25;;;;;;;5.45;3.33;;;;;;;19.98;39.18;100108.81;4991578;28;20381;-80
2023/06/16 00:12:52;;;;;;;4.22;3.53;;;;;;;19.92;39.58;100107.50;4991814;28;20058;-79
2023/06/16 00:15:20;;;;;;;4.53;3.50;;;;;;;19.87;39.46;100107.09;4991038;28;20065;-79
2023/06/16 00:17:47;;;;;;;4.63;3.47;;;;;;;19.84;39.60;100106.53;4991400;28;20054;-79
2023/06/16 00:20:14;;;;;;;5.80;3.20;;;;;;;19.79;39.50;100104.28;4991483;28;20089;-79
2023/06/16 00:22:46;;;;;;;3.92;3.33;;;;;;;19.74;39.47;100106.53;4991400;28;20592;-80
2023/06/16 00:25:13;;;;;;;4.82;3.05;;;;;;;19.71;39.46;100098.78;4991434;28;20054;-79
2023/06/16 00:27:40;;;;;;;4.28;3.13;;;;;;;19.65;39.32;100093.03;4991066;28;20413;-79
2023/06/16 00:30:07;;;;;;;3.40;3.10;;;;;;;19.60;39.90;100097.94;4991446;28;20783;-80
2023/06/16 00:32:33;;;;;;;3.72;3.28;;;;;;;19.55;39.24;100102.81;4991787;28;20440;-80
2023/06/16 00:34:59;;;;;;;5.03;3.17;;;;;;;19.49;39.51;100106.91;4991310;28;20460;-79
2023/06/16 00:37:26;;;;;;;5.43;3.92;;;;;;;19.43;39.73;100095.94;4991120;28;20047;-79
2023/06/16 00:39:53;;;;;;;4.35;3.20;;;;;;;19.36;39.86;100101.81;4991498;28;20136;-79
2023/06/16 00:42:20;;;;;;;5.75;3.60;;;;;;;19.30;39.86;100090.84;4991382;28;20065;-79
2023/06/16 00:44:46;;;;;;;4.32;3.53;;;;;;;19.23;40.08;100094.06;4991698;28;20054;-79
2023/06/16 00:47:13;;;;;;;4.60;3.80;;;;;;;19.19;40.33;100102.47;4991181;28;20532;-79
2023/06/16 00:49:39;;;;;;;4.43;3.70;;;;;;;19.14;40.56;100089.53;4990826;28;20078;-80
2023/06/16 00:52:09;;;;;;;4.53;3.22;;;;;;;19.09;40.80;100089.06;4991136;28;20050;-79
2023/06/16 00:54:36;;;;;;;6.43;3.80;;;;;;;19.06;41.00;100090.19;4991122;28;20055;-79
2023/06/16 00:57:03;;;;;;;8.27;3.40;;;;;;;19.05;41.01;100088.50;4990916;28;20055;-79
2023/06/16 00:59:30;;;;;;;4.93;3.90;;;;;;;19.04;41.14;100086.78;4990696;28;20074;-79
2023/06/16 01:01:56;;;;;;;6.25;3.65;;;;;;;19.04;41.28;100081.47;4971815;28;20494;-80
2023/06/16 01:04:23;;;;;;;4.90;3.80;;;;;;;19.05;41.32;100083.19;4970615;28;20051;-80
2023/06/16 01:07:02;;;;;;;4.45;3.70;;;;;;;19.04;41.63;100092.13;4971632;28;20047;-79
2023/06/16 01:09:31;;;;;;;5.38;3.58;;;;;;;19.11;41.18;100090.63;4971831;28;20059;-79
2023/06/16 01:12:22;;;;;;;6.00;3.67;;;;;;;19.08;41.41;100085.59;4988326;28;20057;-79
2023/06/16 01:15:11;;;;;;;4.07;3.67;;;;;;;19.14;41.62;100090.38;4990851;28;20054;-80
2023/06/16 01:17:43;;;;;;;4.82;3.85;;;;;;;19.16;41.25;100084.03;4990923;28;20057;-80
2023/06/16 01:20:17;;;;;;;3.85;3.35;;;;;;;19.16;41.47;100084.03;4990895;28;20058;-80
2023/06/16 01:23:25;;;;;;;5.00;4.05;;;;;;;19.12;41.40;100081.66;4971731;28;20055;-80
2023/06/16 01:25:55;;;;;;;5.28;3.50;;;;;;;19.18;41.42;100090.09;4988781;28;20054;-80
2023/06/16 01:28:25;;;;;;;5.35;3.67;;;;;;;19.17;41.43;100083.91;4993152;28;20061;-80
2023/06/16 01:30:53;;;;;;;5.40;3.80;;;;;;;19.18;41.45;100087.44;4994214;28;20524;-80
2023/06/16 01:33:24;;;;;;;5.97;3.40;;;;;;;19.17;41.78;100086.56;4994609;28;20177;-80
2023/06/16 01:35:53;;;;;;;4.55;3.70;;;;;;;19.17;41.63;100083.09;4994438;28;20062;-80
2023/06/16 01:38:21;;;;;;;4.13;3.47;;;;;;;19.17;41.08;100086.56;4994241;28;20134;-80
2023/06/16 01:40:51;;;;;;;4.28;3.72;;;;;;;19.15;41.76;100083.22;4994436;28;20062;-80
2023/06/16 01:43:19;;;;;;;6.90;3.75;;;;;;;19.15;41.21;100083.22;4994012;28;20058;-79
2023/06/16 01:45:49;;;;;;;5.70;3.88;;;;;;;19.13;41.35;100088.69;4994469;28;20058;-80
2023/06/16 01:48:16;;;;;;;4.22;3.78;;;;;;;19.14;41.33;100081.53;4994423;28;20054;-80
2023/06/16 01:50:43;;;;;;;5.07;3.40;;;;;;;19.12;41.20;100079.00;4977199;28;20060;-78
2023/06/16 01:53:09;;;;;;;3.85;3.45;;;;;;;19.11;41.40;100079.94;4993858;28;20061;-80
2023/06/16 01:55:35;;;;;;;5.72;3.90;;;;;;;19.10;41.42;100077.44;4993957;28;20050;-80
2023/06/16 01:58:02;;;;;;;5.15;3.92;;;;;;;19.08;41.30;100074.06;4994049;28;20058;-80
2023/06/16 02:00:36;;;;;;;4.97;3.85;;;;;;;19.04;41.68;100073.47;4994028;28;20050;-80
2023/06/16 02:03:07;;;;;;;4.53;3.40;;;;;;;19.02;41.97;100072.72;4994027;28;20062;-79
2023/06/16 02:05:36;;;;;;;6.03;3.55;;;;;;;19.01;41.92;100073.72;4993794;28;20513;-80
2023/06/16 02:08:04;;;;;;;4.55;3.97;;;;;;;18.99;42.06;100068.50;4993893;28;20133;-80
2023/06/16 02:10:31;;;;;;;6.35;4.05;;;;;;;18.97;41.59;100064.28;4993791;28;20055;-80
2023/06/16 02:12:58;;;;;;;8.15;3.70;;;;;;;18.95;41.76;100071.59;4993662;28;20058;-80
2023/06/16 02:15:27;;;;;;;6.63;4.07;;;;;;;18.93;41.99;100073.53;4975756;28;20058;-80
2023/06/16 02:17:57;;;;;;;5.90;3.83;;;;;;;18.88;42.20;100066.78;4993434;28;20055;-80
2023/06/16 02:20:27;;;;;;;6.28;3.78;;;;;;;18.88;42.42;100071.28;4993770;28;20065;-80
2023/06/16 02:22:54;;;;;;;5.70;3.55;;;;;;;18.89;41.87;100078.31;4976043;28;20058;-80
2023/06/16 02:25:20;;;;;;;7.50;3.78;;;;;;;18.87;42.05;100075.78;4993663;28;20150;-80
2023/06/16 02:27:47;;;;;;;5.07;3.72;;;;;;;18.87;41.77;100074.91;4993706;28;20050;-79
2023/06/16 02:30:14;;;;;;;5.60;3.85;;;;;;;18.86;41.79;100079.44;4976243;28;20070;-79
2023/06/16 02:32:41;;;;;;;4.40;3.88;;;;;;;18.86;41.78;100075.91;4993314;28;20050;-80
2023/06/16 02:35:26;;;;;;;4.35;3.17;;;;;;;18.86;41.93;100076.75;4993474;28;20136;-80
2023/06/16 02:37:53;;;;;;;6.45;3.92;;;;;;;18.84;41.79;100069.88;4993490;28;20054;-79
2023/06/16 02:40:20;;;;;;;5.35;3.78;;;;;;;18.82;41.67;100070.00;4993192;28;20104;-80
2023/06/16 02:42:48;;;;;;;6.70;3.75;;;;;;;18.81;42.11;100071.00;4993289;28;20492;-80
2023/06/16 02:45:15;;;;;;;5.80;3.72;;;;;;;18.80;41.96;100074.59;4975458;28;20054;-81
2023/06/16 02:47:43;;;;;;;4.07;3.42;;;;;;;18.81;42.18;100067.47;4992615;28;20054;-79
2023/06/16 02:50:09;;;;;;;5.95;3.65;;;;;;;18.79;41.88;100062.25;4993383;28;20137;-80
2023/06/16 02:52:36;;;;;;;3.78;3.35;;;;;;;18.78;42.26;100068.59;4993079;28;20066;-80
2023/06/16 02:55:06;;;;;;;6.07;3.67;;;;;;;18.78;42.15;100068.59;4992364;28;20054;-79
2023/06/16 02:57:32;;;;;;;5.35;3.55;;;;;;;18.76;42.27;100062.50;4992677;28;20058;-80
2023/06/16 02:59:59;;;;;;;4.28;3.10;;;;;;;18.77;41.84;100063.38;4992975;28;20065;-80
2023/06/16 03:02:25;;;;;;;5.60;3.53;;;;;;;18.75;41.54;100063.50;4992673;28;20429;-80
2023/06/16 03:04:52;;;;;;;7.70;3.40;;;;;;;18.74;41.42;100065.34;4992338;28;20059;-79
2023/06/16 03:07:19;;;;;;;6.75;3.78;;;;;;;18.74;41.57;100067.16;4992635;28;20540;-79
2023/06/16 03:09:46;;;;;;;6.63;3.70;;;;;;;18.72;41.63;100067.28;4992950;28;20426;-79
2023/06/16 03:12:13;;;;;;;4.20;3.30;;;;;;;18.71;41.92;100064.75;4975407;28;20060;-80
2023/06/16 03:14:39;;;;;;;7.95;3.95;;;;;;;18.70;41.91;100063.91;4990628;28;20084;-79
2023/06/16 03:17:06;;;;;;;5.40;3.33;;;;;;;18.69;42.29;100072.88;4992480;28;20081;-79
2023/06/16 03:19:33;;;;;;;6.10;3.85;;;;;;;18.69;42.06;100067.53;4992426;28;20085;-79
2023/06/16 03:22:00;;;;;;;5.97;3.78;;;;;;;18.68;42.04;100065.00;4992613;28;20066;-79
2023/06/16 03:24:26;;;;;;;4.55;3.28;;;;;;;18.68;41.91;100062.34;4992033;28;20081;-79
2023/06/16 03:26:54;;;;;;;6.43;3.63;;;;;;;18.67;42.04;100072.19;4992296;28;20386;-79
2023/06/16 03:29:20;;;;;;;5.50;3.85;;;;;;;18.66;41.81;100069.63;4975049;28;20050;-79
2023/06/16 03:31:47;;;;;;;6.78;4.00;;;;;;;18.65;41.93;100059.97;4992511;28;20058;-79
2023/06/16 03:34:13;;;;;;;6.32;3.90;;;;;;;18.65;41.52;100067.97;4975147;28;20471;-79
2023/06/16 03:36:50;;;;;;;6.53;3.88;;;;;;;18.64;41.82;100063.59;4991731;28;20145;-80
2023/06/16 03:39:16;;;;;;;6.15;3.55;;;;;;;18.62;41.87;100061.91;4991849;28;20061;-80
2023/06/16 03:41:44;;;;;;;7.50;3.88;;;;;;;18.62;41.65;100064.56;4992782;28;20058;-80
2023/06/16 03:44:10;;;;;;;4.68;3.90;;;;;;;18.62;41.77;100064.56;4992062;28;20094;-79
2023/06/16 03:46:36;;;;;;;4.72;3.75;;;;;;;18.62;41.95;100069.06;4974398;28;20504;-79
2023/06/16 03:49:03;;;;;;;5.82;3.78;;;;;;;18.62;42.03;100071.72;4991980;28;20054;-79
2023/06/16 03:51:30;;;;;;;4.75;3.65;;;;;;;18.61;42.08;100070.88;4991873;28;20069;-79
2023/06/16 03:53:57;;;;;;;6.63;4.22;;;;;;;18.61;42.19;100075.34;4992292;28;20170;-79
2023/06/16 03:56:24;;;;;;;7.13;3.95;;;;;;;18.61;42.36;100073.53;4991572;28;20086;-79
2023/06/16 03:58:51;;;;;;;5.30;3.85;;;;;;;18.61;42.14;100076.22;4991986;28;20082;-79
2023/06/16 04:01:20;;;;;;;5.80;4.45;;;;;;;18.61;42.24;100078.88;4991990;28;20060;-79
2023/06/16 04:03:47;;;;;;;5.80;3.88;;;;;;;18.61;42.22;100081.53;4974572;28;20054;-79
2023/06/16 04:06:13;;;;;;;4.80;3.72;;;;;;;18.61;42.40;100075.34;4991395;28;20523;-79
2023/06/16 04:08:40;;;;;;;4.32;3.92;;;;;;;18.61;42.50;100073.53;4991588;28;20050;-80
2023/06/16 04:11:06;;;;;;;7.68;4.57;;;;;;;18.63;42.38;100073.41;4991679;28;20448;-79
2023/06/16 04:13:33;;;;;;;5.05;3.88;;;;;;;18.63;42.93;100073.41;4991757;28;20077;-79
2023/06/16 04:15:59;;;;;;;6.03;4.10;;;;;;;18.64;42.81;100079.59;4991473;28;20093;-79
2023/06/16 04:18:26;;;;;;;5.47;3.92;;;;;;;18.65;42.56;100082.13;4991655;28;20479;-79
2023/06/16 04:20:52;;;;;;;4.60;4.20;;;;;;;18.66;42.69;100082.97;4991834;28;20062;-79
2023/06/16 04:23:19;;;;;;;6.97;4.68;;;;;;;18.65;42.74;100074.13;4991393;28;20054;-79
2023/06/16 04:25:45;;;;;;;5.30;4.20;;;;;;;18.66;42.56;100072.31;4991009;28;20068;-79
2023/06/16 04:28:14;;;;;;;6.35;4.38;;;;;;;18.66;42.78;100069.63;4991558;28;20058;-79
2023/06/16 04:30:42;;;;;;;6.28;4.28;;;;;;;18.66;42.69;100072.31;4991530;28;20089;-79
2023/06/16 04:33:09;;;;;;;6.60;4.60;;;;;;;18.67;42.81;100069.50;4991821;28;20054;-79
2023/06/16 04:35:36;;;;;;;9.98;5.57;;;;;;;18.68;42.87;100070.34;4991364;28;20121;-79
2023/06/16 04:38:06;;;;;;;10.45;5.93;;;;;;;18.68;42.96;100065.84;4990959;28;20429;-79
2023/06/16 04:40:32;;;;;;;6.65;5.90;;;;;;;18.69;43.06;100066.72;4991344;28;20493;-80
2023/06/16 04:42:59;;;;;;;7.35;5.78;;;;;;;18.70;43.10;100068.41;4991490;28;20059;-79
2023/06/16 04:45:25;;;;;;;9.40;6.00;;;;;;;18.71;43.50;100062.06;4991108;28;20548;-79
2023/06/16 04:47:52;;;;;;;9.07;5.45;;;;;;;18.72;43.66;100059.28;4989367;28;20054;-79
2023/06/16 04:50:19;;;;;;;7.32;5.55;;;;;;;18.73;43.36;100060.13;4991229;28;20058;-79
2023/06/16 04:52:47;;;;;;;7.13;5.40;;;;;;;18.76;43.49;100065.19;4991152;28;20061;-79
2023/06/16 04:55:16;;;;;;;7.28;4.90;;;;;;;18.78;43.74;100065.06;4991201;28;20058;-80
2023/06/16 04:57:43;;;;;;;5.00;4.35;;;;;;;18.80;43.65;100061.28;4990737;28;20050;-79
2023/06/16 05:00:10;;;;;;;6.22;5.05;;;;;;;18.84;44.04;100060.03;4990366;28;20050;-79
2023/06/16 05:02:37;;;;;;;6.78;4.07;;;;;;;18.87;43.97;100057.09;4993564;28;20058;-79
2023/06/16 05:05:04;;;;;;;7.30;4.72;;;;;;;18.92;43.79;100058.53;4993513;28;20568;-79
2023/06/16 05:07:31;;;;;;;4.50;3.90;;;;;;;18.97;43.46;100058.97;4995062;28;20059;-79
2023/06/16 05:09:58;;;;;;;7.05;5.13;;;;;;;19.01;44.09;100052.38;4977530;28;20064;-79
2023/06/16 05:12:25;;;;;;;9.80;5.20;;;;;;;19.06;43.79;100044.00;4977688;28;20062;-79
2023/06/16 05:14:52;;;;;;;7.32;4.90;;;;;;;19.11;43.57;100047.09;5035251;23;20053;-80
2023/06/16 05:17:19;;;;;;;5.95;4.72;;;;;;;19.17;43.36;100054.56;4993963;28;20057;-80
2023/06/16 05:19:45;;;;;;;6.03;3.83;;;;;;;19.22;43.10;100056.81;4994439;28;20054;-81
2023/06/16 05:22:13;;;;;;;6.38;4.07;;;;;;;19.26;43.06;100055.56;4978641;28;20055;-81
2023/06/16 05:24:39;;;;;;;4.88;3.80;;;;;;;19.32;42.98;100052.34;4974371;28;20114;-81
2023/06/16 05:27:06;;;;;;;8.18;4.80;;;;;;;19.36;43.26;100048.41;4974503;28;20062;-81
2023/06/16 05:29:32;;;;;;;6.38;4.40;;;;;;;19.42;43.69;100056.84;4973605;28;20051;-81
2023/06/16 05:31:59;;;;;;;5.90;4.38;;;;;;;19.46;43.50;100059.13;4968594;28;20085;-81
2023/06/16 05:34:25;;;;;;;5.75;4.57;;;;;;;19.51;43.87;100051.53;4993766;28;20064;-81
2023/06/16 05:36:52;;;;;;;5.97;4.78;;;;;;;19.55;44.21;100056.59;4976104;28;20306;-81
2023/06/16 05:39:18;;;;;;;5.07;4.47;;;;;;;19.59;43.83;100050.81;4994147;28;20046;-81
2023/06/16 05:41:45;;;;;;;5.82;4.55;;;;;;;19.64;43.98;100045.94;4994045;28;20133;-81
2023/06/16 05:44:12;;;;;;;6.30;4.13;;;;;;;19.70;44.30;100046.34;4994108;28;20050;-81
2023/06/16 05:46:39;;;;;;;4.45;4.05;;;;;;;19.75;44.10;100046.78;4993915;28;20084;-81
2023/06/16 05:49:06;;;;;;;17.77;4.75;;;;;;;19.82;44.17;100055.94;4976726;28;20054;-81
2023/06/16 05:51:35;;;;;;;10.90;5.15;;;;;;;19.87;44.64;100055.47;4994066;28;20054;-81
2023/06/16 05:54:01;;;;;;;8.20;4.22;;;;;;;19.91;44.56;100046.22;4993718;28;20081;-81
2023/06/16 05:56:28;;;;;;;6.45;3.83;;;;;;;19.98;44.69;100052.72;4976462;28;20054;-81
2023/06/16 05:58:55;;;;;;;4.68;3.88;;;;;;;20.02;44.39;100048.78;4993730;28;20062;-81
2023/06/16 06:01:21;;;;;;;4.40;4.00;;;;;;;20.07;44.77;100047.50;4992537;28;20149;-81
2023/06/16 06:03:48;;;;;;;5.00;4.40;;;;;;;20.12;44.83;100056.78;4993189;28;20054;-81
2023/06/16 06:06:15;;;;;;;5.05;4.07;;;;;;;20.19;44.77;100057.06;4975203;28;20158;-80
2023/06/16 06:08:41;;;;;;;4.68;4.13;;;;;;;20.24;45.16;100048.59;4990592;28;20516;-80
2023/06/16 06:11:08;;;;;;;6.30;4.47;;;;;;;20.30;45.06;100062.22;4976212;28;20145;-80
2023/06/16 06:13:34;;;;;;;4.80;4.30;;;;;;;20.35;44.94;100059.13;4993016;28;20440;-80
2023/06/16 06:16:01;;;;;;;6.05;4.18;;;;;;;20.39;44.55;100051.66;4993282;28;20065;-81
2023/06/16 06:18:28;;;;;;;5.90;4.28;;;;;;;20.44;44.69;100063.59;4976053;28;20489;-81
2023/06/16 06:20:55;;;;;;;5.35;4.32;;;;;;;20.47;44.55;100057.13;4993542;28;20050;-81
2023/06/16 06:23:21;;;;;;;6.40;4.78;;;;;;;20.52;44.54;100064.72;4993422;28;20058;-79
2023/06/16 06:25:48;;;;;;;6.13;4.63;;;;;;;20.56;44.81;100076.81;4993126;28;20564;-79
2023/06/16 06:28:15;;;;;;;5.35;4.82;;;;;;;20.59;45.01;100081.84;4993052;28;20081;-79
2023/06/16 06:30:41;;;;;;;6.63;5.78;;;;;;;20.64;44.63;100073.41;4993247;28;20089;-79
2023/06/16 06:33:08;;;;;;;6.82;6.10;;;;;;;20.68;44.97;100078.31;4993048;28;20149;-79
2023/06/16 06:35:34;;;;;;;6.75;6.05;;;;;;;20.73;44.98;100071.66;4975772;28;20081;-79
2023/06/16 06:38:02;;;;;;;6.53;5.47;;;;;;;20.78;44.90;100072.09;4975827;28;20046;-79
2023/06/16 06:40:31;;;;;;;8.80;5.45;;;;;;;20.82;44.99;100065.47;4993198;28;20101;-79
2023/06/16 06:42:58;;;;;;;7.65;6.28;;;;;;;20.87;45.19;100075.72;4975929;28;20086;-79
2023/06/16 06:45:25;;;;;;;7.63;5.47;;;;;;;20.90;44.89;100078.97;4992530;28;20116;-81
2023/06/16 06:47:51;;;;;;;5.97;5.28;;;;;;;20.94;45.14;100075.00;4975658;28;20062;-81
2023/06/16 06:50:18;;;;;;;8.77;5.78;;;;;;;20.98;44.75;100078.25;4993008;28;20062;-81
2023/06/16 06:52:45;;;;;;;6.63;5.65;;;;;;;21.02;44.87;100076.09;4975489;28;20572;-81
2023/06/16 06:55:11;;;;;;;5.85;5.18;;;;;;;21.07;44.47;100069.31;4992700;28;20146;-79
2023/06/16 06:57:40;;;;;;;6.88;5.75;;;;;;;21.10;44.63;100068.19;4992598;28;20449;-79
2023/06/16 07:00:07;;;;;;;7.15;5.50;;;;;;;21.15;44.65;100076.59;4992535;28;20642;-79
2023/06/16 07:02:35;;;;;;;9.20;5.40;;;;;;;21.21;44.72;100072.50;4975449;28;20062;-79
2023/06/16 07:05:02;;;;;;;8.23;5.88;;;;;;;21.26;44.90;100072.06;4975248;28;20579;-78
2023/06/16 07:07:28;;;;;;;7.68;5.57;;;;;;;21.30;44.49;100068.09;4992420;28;20058;-78
2023/06/16 07:09:55;;;;;;;6.45;4.72;;;;;;;21.37;44.50;100073.69;4991199;28;20473;-79
2023/06/16 07:12:21;;;;;;;6.28;4.78;;;;;;;21.43;44.83;100076.59;4992372;28;20061;-79
2023/06/16 07:14:48;;;;;;;9.85;5.32;;;;;;;21.51;44.65;100075.84;4992391;28;20105;-79
2023/06/16 07:17:15;;;;;;;7.32;5.65;;;;;;;21.59;44.69;100081.28;4992136;28;20425;-79
2023/06/16 07:19:41;;;;;;;7.43;5.32;;;;;;;21.67;44.66;100080.50;4975174;28;20142;-79
2023/06/16 07:22:08;;;;;;;7.68;5.53;;;;;;;21.77;44.56;100084.97;4992218;28;20517;-79
2023/06/16 07:24:35;;;;;;;8.07;5.32;;;;;;;21.84;44.70;100080.69;4991621;28;20064;-79
2023/06/16 07:27:02;;;;;;;7.65;5.88;;;;;;;21.91;44.25;100076.41;4991362;28;20405;-79
2023/06/16 07:29:29;;;;;;;6.50;5.68;;;;;;;21.98;44.10;100074.78;4975037;28;20133;-79
2023/06/16 07:31:56;;;;;;;6.43;5.63;;;;;;;22.05;44.61;100077.69;4992180;28;20089;-78
2023/06/16 07:34:22;;;;;;;7.38;5.25;;;;;;;22.14;43.75;100073.25;4991982;28;20081;-79
2023/06/16 07:36:49;;;;;;;7.47;5.50;;;;;;;22.19;43.88;100070.94;4991858;28;20141;-79
2023/06/16 07:39:17;;;;;;;10.80;5.63;;;;;;;22.26;44.07;100068.47;4992064;28;20086;-79
2023/06/16 07:41:43;;;;;;;6.32;5.03;;;;;;;22.35;44.14;100074.75;4991719;28;20074;-79
2023/06/16 07:44:10;;;;;;;7.20;4.63;;;;;;;22.41;44.27;100076.78;4992080;28;20084;-79
2023/06/16 07:46:36;;;;;;;10.18;4.70;;;;;;;22.49;43.89;100082.22;4991556;28;20065;-79
2023/06/16 07:49:03;;;;;;;4.68;4.18;;;;;;;22.59;43.26;100081.28;4974653;28;20051;-78
2023/06/16 07:51:29;;;;;;;6.63;4.25;;;;;;;22.68;43.20;100088.38;4991858;28;20145;-78
2023/06/16 07:53:55;;;;;;;5.93;4.68;;;;;;;22.77;42.36;100086.59;4991480;28;20058;-79
2023/06/16 07:56:22;;;;;;;4.45;4.00;;;;;;;22.85;42.25;100083.09;4991517;28;20428;-79
2023/06/16 07:58:48;;;;;;;4.68;4.18;;;;;;;22.93;42.12;100084.97;4991643;28;20064;-79
2023/06/16 08:01:16;;;;;;;4.85;4.35;;;;;;;23.00;41.95;100089.56;4974358;28;20539;-79
2023/06/16 08:03:46;;;;;;;5.13;4.10;;;;;;;23.10;41.79;100085.91;4991418;28;20054;-79
2023/06/16 08:06:13;;;;;;;4.30;3.45;;;;;;;23.18;41.71;100088.63;4974219;28;20058;-79
2023/06/16 08:08:40;;;;;;;5.25;3.33;;;;;;;23.26;41.11;100082.44;4991554;28;20109;-79
2023/06/16 08:11:07;;;;;;;4.78;3.80;;;;;;;23.36;41.21;100085.03;4991734;28;20062;-79
2023/06/16 08:13:33;;;;;;;5.18;3.90;;;;;;;23.46;41.30;100079.47;4991854;28;20145;-79
2023/06/16 08:16:01;;;;;;;5.70;4.38;;;;;;;23.56;40.92;100077.50;4991155;28;20112;-79
2023/06/16 08:18:27;;;;;;;7.25;4.78;;;;;;;23.64;41.05;100074.84;4991219;28;20054;-79
2023/06/16 08:20:55;;;;;;;4.60;4.07;;;;;;;23.72;40.93;100074.00;4974082;28;20058;-79
2023/06/16 08:23:21;;;;;;;6.53;3.90;;;;;;;23.82;40.84;100073.84;4991087;28;20109;-79
2023/06/16 08:25:48;;;;;;;4.78;3.50;;;;;;;23.91;40.31;100078.22;4991105;28;20114;-79
2023/06/16 08:28:14;;;;;;;4.65;4.03;;;;;;;23.99;40.33;100079.25;4973809;28;20486;-79
2023/06/16 08:30:41;;;;;;;4.85;4.03;;;;;;;24.07;40.58;100077.38;4974196;28;20137;-79
2023/06/16 08:33:09;;;;;;;4.72;3.55;;;;;;;24.17;40.53;100081.78;4991277;28;20085;-79
2023/06/16 08:35:36;;;;;;;4.40;3.88;;;;;;;24.25;39.90;100076.38;4973623;28;20054;-79
2023/06/16 08:38:02;;;;;;;4.68;3.80;;;;;;;24.34;39.30;100075.34;4979510;28;20069;-79
2023/06/16 08:40:30;;;;;;;6.10;3.38;;;;;;;24.42;38.78;100082.59;4980449;28;20054;-79
2023/06/16 08:42:58;;;;;;;5.20;3.58;;;;;;;24.51;38.49;100080.72;4997789;28;20058;-79
2023/06/16 08:45:25;;;;;;;4.70;3.40;;;;;;;24.57;38.09;100074.66;4980065;28;20060;-79
2023/06/16 08:47:52;;;;;;;6.88;3.72;;;;;;;24.64;38.40;100076.66;4997502;28;20058;-79
2023/06/16 08:50:23;;;;;;;3.47;3.17;;;;;;;24.69;38.26;100075.13;4980080;28;20057;-79
2023/06/16 08:52:52;;;;;;;4.20;3.65;;;;;;;24.77;37.62;100074.25;4980395;28;20058;-79
2023/06/16 08:55:20;;;;;;;6.60;3.83;;;;;;;24.84;38.28;100079.81;4997286;28;20065;-79
2023/06/16 08:57:50;;;;;;;5.90;3.90;;;;;;;24.92;37.58;100071.72;4997406;28;20420;-79
2023/06/16 09:00:17;;;;;;;4.88;3.78;;;;;;;24.99;37.28;100074.56;4980170;28;20069;-79
2023/06/16 09:02:48;;;;;;;5.35;4.10;;;;;;;25.06;37.67;100067.47;4997363;28;20432;-79
2023/06/16 09:05:17;;;;;;;6.07;3.85;;;;;;;25.15;37.04;100060.16;4997391;28;20216;-79
2023/06/16 09:07:45;;;;;;;8.20;4.00;;;;;;;25.23;37.60;100057.44;4997284;28;20076;-79
2023/06/16 09:10:11;;;;;;;5.05;3.90;;;;;;;25.30;37.19;100065.63;4979992;28;20054;-79
2023/06/16 09:12:38;;;;;;;4.57;4.10;;;;;;;25.39;37.30;100066.44;4997384;28;20054;-79
2023/06/16 09:15:10;;;;;;;5.38;4.00;;;;;;;25.47;36.61;100073.63;4996855;28;20057;-79
2023/06/16 09:17:39;;;;;;;;;;;;;;;25.55;37.84;100073.59;4997717;28;20053;-79
2023/06/16 09:20:13;;;;;;;4.45;3.10;;;;;;;25.68;36.58;100069.50;4980024;28;19941;-80
2023/06/16 09:22:40;;;;;;;3.95;3.38;;;;;;;25.79;36.20;100070.94;4997523;28;20343;-79
2023/06/16 09:25:09;;;;;;;4.60;3.40;;;;;;;25.85;36.84;100068.34;4979786;28;20135;-80
2023/06/16 09:27:50;;;;;;;4.38;3.33;;;;;;;25.89;35.93;100066.97;4979874;28;20055;-79
2023/06/16 09:30:20;;;;;;;4.63;3.40;;;;;;;25.99;36.62;100065.88;4980105;28;20058;-79
2023/06/16 09:32:49;;;;;;;4.72;3.05;;;;;;;26.09;36.81;100057.53;4997588;28;20353;-79
2023/06/16 09:35:23;;;;;;;5.57;3.72;;;;;;;26.19;36.36;100063.50;4996934;28;20062;-79
2023/06/16 09:37:52;;;;;;;4.18;3.08;;;;;;;26.32;37.24;100065.63;4997214;28;20461;-79
2023/06/16 09:40:24;;;;;;;4.28;3.15;;;;;;;26.44;36.81;100062.44;4979648;28;20088;-80
2023/06/16 09:42:51;;;;;;;4.57;3.38;;;;;;;26.57;36.61;100056.44;4997207;28;20552;-80
2023/06/16 09:45:20;;;;;;;3.70;3.10;;;;;;;26.67;36.26;100060.53;4997112;28;20086;-80
2023/06/16 09:47:48;;;;;;;3.45;3.08;;;;;;;26.79;36.23;100057.34;4995964;28;20141;-80
2023/06/16 09:50:23;;;;;;;4.80;3.40;;;;;;;26.90;36.30;100053.31;4993522;28;20054;-80
2023/06/16 09:52:50;;;;;;;5.72;3.45;;;;;;;27.01;35.35;100054.72;4994099;28;20058;-79
2023/06/16 09:55:16;;;;;;;4.38;3.50;;;;;;;27.10;34.75;100050.88;4993693;28;20050;-79
2023/06/16 09:57:45;;;;;;;4.07;3.65;;;;;;;27.17;35.15;100056.41;4992729;28;20054;-80
2023/06/16 10:00:15;;;;;;;4.25;3.20;;;;;;;27.25;35.23;100044.63;4976640;28;20054;-80
2023/06/16 10:02:47;;;;;;;3.97;3.50;;;;;;;27.33;34.85;100049.91;4976717;28;20093;-80
2023/06/16 10:05:18;;;;;;;4.93;3.55;;;;;;;27.40;34.89;100050.00;4993735;28;20093;-80
2023/06/16 10:07:53;;;;;;;6.57;3.42;;;;;;;27.48;34.75;100043.63;4976194;28;20059;-80
2023/06/16 10:10:23;;;;;;;3.67;2.90;;;;;;;27.56;34.74;100040.78;4993838;28;20137;-80
2023/06/16 10:12:51;;;;;;;7.88;3.15;;;;;;;27.65;35.08;100045.06;4993789;28;20066;-80
2023/06/16 10:15:30;;;;;;;7.78;3.67;;;;;;;27.70;35.07;100048.03;4975909;28;20145;-80
2023/06/16 10:18:05;;;;;;;3.90;3.50;;;;;;;27.84;35.16;100049.00;4993676;28;20060;-80
2023/06/16 10:20:37;;;;;;;3.55;3.25;;;;;;;27.95;35.24;100033.25;4976939;28;20050;-80
2023/06/16 10:23:04;;;;;;;5.93;3.58;;;;;;;28.06;34.76;100040.84;4975980;28;20493;-80
2023/06/16 10:25:33;;;;;;;3.75;3.33;;;;;;;28.16;34.80;100031.53;4993686;28;20469;-80
2023/06/16 10:28:05;;;;;;;6.72;3.60;;;;;;;28.27;35.11;100041.88;4993012;28;20105;-80
2023/06/16 10:30:32;;;;;;;4.45;3.30;;;;;;;28.39;34.41;100035.88;4976115;28;20157;-80
2023/06/16 10:33:13;;;;;;;4.35;3.80;;;;;;;28.50;34.35;100035.34;4976283;28;20153;-80
2023/06/16 10:35:48;;;;;;;6.88;3.72;;;;;;;28.61;35.33;100036.63;4993258;28;20054;-80
2023/06/16 10:38:15;;;;;;;8.95;4.03;;;;;;;28.78;34.30;100047.97;4975971;28;20526;-80
2023/06/16 10:40:42;;;;;;;4.35;3.53;;;;;;;28.87;34.32;100035.94;4993160;28;20097;-80
2023/06/16 10:43:23;;;;;;;4.22;3.47;;;;;;;28.96;35.05;100028.50;4992943;28;20062;-80
2023/06/16 10:45:49;;;;;;;3.75;3.40;;;;;;;29.18;34.32;100027.50;4993039;28;20058;-80
2023/06/16 10:48:16;;;;;;;3.67;3.35;;;;;;;29.38;34.13;100024.88;4992973;28;20050;-80
2023/06/16 10:50:42;;;;;;;3.50;3.20;;;;;;;29.66;33.87;100021.16;4975849;28;20116;-80
2023/06/16 10:53:14;;;;;;;3.72;3.33;;;;;;;30.00;33.16;100022.00;4975421;28;20097;-80
2023/06/16 10:55:42;;;;;;;3.35;2.88;;;;;;;30.40;33.16;100014.88;4975537;28;20054;-80
2023/06/16 10:58:20;;;;;;;9.98;3.45;;;;;;;30.86;33.42;100015.78;4992813;28;20058;-81
2023/06/16 11:01:05;;;;;;;7.57;2.88;;;;;;;31.36;31.51;100010.72;4975266;28;20150;-81
2023/06/16 11:03:36;;;;;;;4.53;3.28;;;;;;;31.89;30.87;100014.13;4992760;28;20077;-80
2023/06/16 11:06:04;;;;;;;3.47;3.08;;;;;;;32.35;30.27;100010.09;4992404;28;20093;-80
2023/06/16 11:08:47;;;;;;;4.30;2.95;;;;;;;32.78;29.77;100013.00;4975378;28;20058;-80
2023/06/16 11:11:13;;;;;;;3.55;3.13;;;;;;;33.23;29.14;100010.94;4992696;28;20054;-80
2023/06/16 11:13:40;;;;;;;4.35;2.88;;;;;;;33.60;29.24;100007.28;4992463;28;20082;-80
2023/06/16 11:16:07;;;;;;;4.90;2.65;;;;;;;33.96;28.28;100010.84;4988211;23;20108;-80
2023/06/16 11:18:35;;;;;;;7.00;2.70;;;;;;;34.25;28.86;100007.41;4992117;28;20054;-79
2023/06/16 11:21:03;;;;;;;3.20;2.90;;;;;;;34.53;26.70;100003.91;4992469;28;20109;-79
2023/06/16 11:23:32;;;;;;;2.95;2.75;;;;;;;34.79;26.25;100000.91;4992594;28;20726;-80
2023/06/16 11:26:10;;;;;;;2.63;2.42;;;;;;;34.98;25.39;99997.97;4992627;28;20054;-79
2023/06/16 11:28:40;;;;;;;2.80;2.60;;;;;;;35.20;24.92;100001.69;4992132;28;20523;-80